agriturismo.it alexa rank chart, agriturismo.it alexa rank daily changes

agriturismo.it alexa rank chart, agriturismo.it alexa rank daily changes

agriturismo.it
Actual rank:
213 760

RANK HISTORY

Date Rank Diff
2018/08/17 213 760 +146 537
2018/08/16 67 223 +12 935
2018/08/15 54 288 +2 898
2018/08/14 51 390 +11 317
2018/08/13 40 073 -7 020
2018/08/12 47 093 -24 197
2018/08/11 71 290 +6 038
2018/08/10 65 252 +38 786
2018/08/09 26 466 -31 834
2018/08/08 58 300 +34 440
2018/08/07 23 860 -88 526
2018/08/06 112 386 +77 390
2018/08/05 34 996 -127 120
2018/08/04 162 116 +76 087
2018/08/03 86 029 +53 804
2018/08/02 32 225 -18 465
2018/08/01 50 690 -9 899
2018/07/31 60 589 +18 811
2018/07/30 41 778 -20 264
2018/07/29 62 042 +15 184
2018/07/28 46 858 -25 810
2018/07/27 72 668 +23 871
2018/07/26 48 797 -21 192
2018/07/25 69 989 +13 736
2018/07/24 56 253 -283 726
2018/07/23 339 979 +236 730
2018/07/22 103 249 +41 748
2018/07/21 61 501 +4 102
2018/07/20 57 399 -9 363
2018/07/19 66 762 -18 141
2018/07/18 84 903 +30 865
2018/07/17 54 038 -11 434
2018/07/16 65 472 +15 130
2018/07/15 50 342 -8 438
2018/07/14 58 780 -30 463
2018/07/13 89 243 +22 917
2018/07/12 66 326 -64 658
2018/07/11 130 984 +68 607
2018/07/10 62 377 -70 559
2018/07/09 132 936 +89 684
2018/07/08 43 252 -40 609
2018/07/07 83 861 +9 775
2018/07/06 74 086 -17 932
2018/07/05 92 018 -72 113
2018/07/04 164 131 +66 878
2018/07/03 97 253 -57 597
2018/07/02 154 850 +92 768
2018/07/01 62 082 +16 018
2018/06/30 46 064 -31 860
2018/06/29 77 924 +12 756
2018/06/28 65 168 -22 888
2018/06/27 88 056 -74 931
2018/06/26 162 987 +35 928
2018/06/25 127 059 -734 353
2018/06/24 861 412 +800 666
2018/06/23 60 746 +11 732
2018/06/22 49 014 -7 959
2018/06/21 56 973 -33 733
2018/06/20 90 706 -25 435
2018/06/19 116 141 +38 144
2018/06/18 77 997

WIDGET FOR YOUR SITE

DOMAINS WITH THE NEAREST RANK

Domain Rank
eluxemagazine.com 213 755
thesitsgirls.com 213 756
cronometro.net 213 757
peachisodaworld.com 213 758
instagramtags.com 213 759
agriturismo.it 213 760
topwebcomics.com 213 761
skachat-minecraft.ru 213 762
daklak.edu.vn 213 763
seemallorca.com 213 764
bdme.co.uk 213 765

DOMAINS WITH THE NEAREST RANK BY TLD .it

Domain Rank
ridewill.it 212 615
capit.it 212 861
rifugiopuez.it 213 005
ion.it 213 271
stilecontemporaneo.it 213 493
agriturismo.it 213 760
atvo.it 214 456
turismoroma.it 215 158
paolaegino.it 215 497
dichesegnosei.it 215 592
dcrypt.it 215 942